createdAt,value
2017-02-14T00:00:48.418Z,70.03
2017-02-14T00:01:58.176Z,70.21
2017-02-14T00:03:07.917Z,70.03
2017-02-14T00:04:16.852Z,70.21
2017-02-14T00:05:26.592Z,70.4
2017-02-14T00:06:35.605Z,70.31
2017-02-14T00:07:44.942Z,70.4
2017-02-14T00:08:53.847Z,70.21
2017-02-14T00:10:02.775Z,70.31
2017-02-14T00:11:11.688Z,69.84
2017-02-14T00:12:21.894Z,70.12
2017-02-14T00:13:31.204Z,70.5
2017-02-14T00:14:41.342Z,70.4
2017-02-14T00:15:50.670Z,70.5
2017-02-14T00:16:59.992Z,70.12
2017-02-14T00:18:09.867Z,70.5
2017-02-14T00:19:19.619Z,70.5
2017-02-14T00:20:29.346Z,70.4
2017-02-14T00:21:38.668Z,70.59
2017-02-14T00:22:47.989Z,70.4
2017-02-14T00:23:56.959Z,70.4
2017-02-14T00:25:07.088Z,70.4
2017-02-14T00:26:16.823Z,70.59
2017-02-14T00:27:25.728Z,70.4
2017-02-14T00:28:35.448Z,70.4
2017-02-14T00:29:45.226Z,70.5
2017-02-14T00:30:54.543Z,70.59
2017-02-14T00:32:04.715Z,70.59
2017-02-14T00:33:14.885Z,70.69
2017-02-14T00:34:24.213Z,70.59
2017-02-14T00:35:33.562Z,70.78
2017-02-14T00:36:42.894Z,70.59
2017-02-14T00:37:52.242Z,70.5
2017-02-14T00:39:01.571Z,70.59
2017-02-14T00:40:10.917Z,70.31
2017-02-14T00:41:21.350Z,70.59
2017-02-14T00:42:30.700Z,71.07
2017-02-14T00:43:40.446Z,70.97
2017-02-14T00:44:49.794Z,71.26
2017-02-14T00:45:59.117Z,70.69
2017-02-14T00:47:08.537Z,70.69
2017-02-14T00:48:17.848Z,70.69
2017-02-14T00:49:26.754Z,70.88
2017-02-14T00:50:35.671Z,70.97
2017-02-14T00:51:45.416Z,70.88
2017-02-14T00:52:54.907Z,71.07
2017-02-14T00:54:04.249Z,71.26
2017-02-14T00:55:13.984Z,71.26
2017-02-14T00:56:23.721Z,71.45
2017-02-14T00:57:32.669Z,71.35
2017-02-14T00:58:42.008Z,70.97
2017-02-14T00:59:50.973Z,71.45
2017-02-14T01:01:00.285Z,71.31
2017-02-14T01:02:09.204Z,71.41
2017-02-14T01:03:18.104Z,71.5
2017-02-14T01:04:27.469Z,71.64
2017-02-14T01:05:36.788Z,71.45
2017-02-14T01:06:46.119Z,71.31
2017-02-14T01:07:56.286Z,71.35
2017-02-14T01:09:05.633Z,71.41
2017-02-14T01:10:15.467Z,71.88
2017-02-14T01:11:25.225Z,72.2
2017-02-14T01:12:35.807Z,72.11
2017-02-14T01:13:45.548Z,72.2
2017-02-14T01:14:54.879Z,72.17
2017-02-14T01:16:04.247Z,71.98
2017-02-14T01:17:14.408Z,71.6
2017-02-14T01:18:23.728Z,72.07
2017-02-14T01:19:32.636Z,71.98
2017-02-14T01:20:41.950Z,71.98
2017-02-14T01:21:51.331Z,71.98
2017-02-14T01:23:01.069Z,71.98
2017-02-14T01:24:11.218Z,71.88
2017-02-14T01:25:20.538Z,72.07
2017-02-14T01:26:30.255Z,71.88
2017-02-14T01:27:39.676Z,71.88
2017-02-14T01:28:49.408Z,71.98
2017-02-14T01:29:58.310Z,71.98
2017-02-14T01:31:07.215Z,71.98
2017-02-14T01:32:16.118Z,72.07
2017-02-14T01:33:25.496Z,72.17
2017-02-14T01:34:35.642Z,72.07
2017-02-14T01:35:45.383Z,72.36
2017-02-14T01:36:54.290Z,72.17
2017-02-14T01:38:03.191Z,72.07
2017-02-14T01:39:12.621Z,72.17
2017-02-14T01:40:21.939Z,72.17
2017-02-14T01:41:30.851Z,72.17
2017-02-14T01:42:40.589Z,72.17
2017-02-14T01:43:49.905Z,72.26
2017-02-14T01:44:59.793Z,72.45
2017-02-14T01:46:08.718Z,72.36
2017-02-14T01:47:18.054Z,72.64
2017-02-14T01:48:27.391Z,72.17
2017-02-14T01:49:37.129Z,72.26
2017-02-14T01:50:46.880Z,72.55
2017-02-14T01:51:56.202Z,72.17
2017-02-14T01:53:06.339Z,72.73
2017-02-14T01:54:15.672Z,72.73
2017-02-14T01:55:25.818Z,72.07
2017-02-14T01:56:34.991Z,72.45
2017-02-14T01:57:43.909Z,72.17
2017-02-14T01:58:53.652Z,72.45
2017-02-14T02:00:03.795Z,72.07
2017-02-14T02:01:13.143Z,72.26
2017-02-14T02:02:22.561Z,72.73
2017-02-14T02:03:32.706Z,72.73
2017-02-14T02:04:42.863Z,72.55
2017-02-14T02:05:52.187Z,72.92
2017-02-14T02:07:01.106Z,72.17
2017-02-14T02:08:10.420Z,72.55
2017-02-14T02:09:20.143Z,73.39
2017-02-14T02:10:29.869Z,73.11
2017-02-14T02:11:40.010Z,72.73
2017-02-14T02:12:49.346Z,72.73
2017-02-14T02:13:59.540Z,73.02
2017-02-14T02:15:10.096Z,72.83
2017-02-14T02:16:19.433Z,72.73
2017-02-14T02:17:29.188Z,72.92
2017-02-14T02:18:38.514Z,72.83
2017-02-14T02:19:48.356Z,72.73
2017-02-14T02:20:57.688Z,72.45
2017-02-14T02:22:07.414Z,72.45
2017-02-14T02:23:16.734Z,72.55
2017-02-14T02:24:26.453Z,72.64
2017-02-14T02:25:35.668Z,72.64
2017-02-14T02:26:44.586Z,72.64
2017-02-14T02:27:53.921Z,73.02
2017-02-14T02:29:03.238Z,72.55
2017-02-14T02:30:12.151Z,72.55
2017-02-14T02:31:22.778Z,72.64
2017-02-14T02:32:32.920Z,72.64
2017-02-14T02:33:42.657Z,72.64
2017-02-14T02:34:51.976Z,73.02
2017-02-14T02:36:01.710Z,72.73
2017-02-14T02:37:11.611Z,72.55
2017-02-14T02:38:20.936Z,72.55
2017-02-14T02:39:31.065Z,72.64
2017-02-14T02:40:40.394Z,72.55
2017-02-14T02:41:49.720Z,72.73
2017-02-14T02:42:59.243Z,72.73
2017-02-14T02:44:09.383Z,73.02
2017-02-14T02:45:18.711Z,73.21
2017-02-14T02:46:27.623Z,72.73
2017-02-14T02:47:36.981Z,72.92
2017-02-14T02:48:45.909Z,73.11
2017-02-14T02:49:55.255Z,72.83
2017-02-14T02:51:04.190Z,72.83
2017-02-14T02:52:13.495Z,72.83
2017-02-14T02:53:22.819Z,72.92
2017-02-14T02:54:31.779Z,72.83
2017-02-14T02:55:41.110Z,72.73
2017-02-14T02:56:50.430Z,72.83
2017-02-14T02:57:59.357Z,72.83
2017-02-14T02:59:08.699Z,72.83
2017-02-14T03:00:17.934Z,72.83
2017-02-14T03:01:27.662Z,72.83
2017-02-14T03:02:37.410Z,73.11
2017-02-14T03:03:47.539Z,72.73
2017-02-14T03:04:57.288Z,73.39
2017-02-14T03:06:07.147Z,72.45
2017-02-14T03:07:16.485Z,73.3
2017-02-14T03:08:25.796Z,73.21
2017-02-14T03:09:35.548Z,73.11
2017-02-14T03:10:45.321Z,73.3
2017-02-14T03:11:54.233Z,72.83
2017-02-14T03:13:03.601Z,73.11
2017-02-14T03:14:13.318Z,73.3
2017-02-14T03:15:22.640Z,73.39
2017-02-14T03:16:31.961Z,72.83
2017-02-14T03:17:42.010Z,73.3
2017-02-14T03:18:51.332Z,73.11
2017-02-14T03:20:01.069Z,73.11
2017-02-14T03:21:10.407Z,73.21
2017-02-14T03:22:19.733Z,73.11
2017-02-14T03:23:30.117Z,72.92
2017-02-14T03:24:39.018Z,73.21
2017-02-14T03:25:49.156Z,73.58
2017-02-14T03:26:58.901Z,73.49
2017-02-14T03:28:07.809Z,73.39
2017-02-14T03:29:17.149Z,73.3
2017-02-14T03:30:26.463Z,73.39
2017-02-14T03:31:36.196Z,73.49
2017-02-14T03:32:46.339Z,73.3
2017-02-14T03:33:56.102Z,73.49
2017-02-14T03:35:05.588Z,73.39
2017-02-14T03:36:14.485Z,73.49
2017-02-14T03:37:24.237Z,73.39
2017-02-14T03:38:33.966Z,73.49
2017-02-14T03:39:43.710Z,73.21
2017-02-14T03:40:52.885Z,73.39
2017-02-14T03:42:02.207Z,73.49
2017-02-14T03:43:11.929Z,73.21
2017-02-14T03:44:22.083Z,73.86
2017-02-14T03:45:31.398Z,73.68
2017-02-14T03:46:40.871Z,73.02
2017-02-14T03:47:50.609Z,73.77
2017-02-14T03:48:59.515Z,73.86
2017-02-14T03:50:08.829Z,73.58
2017-02-14T03:51:18.141Z,73.58
2017-02-14T03:52:27.106Z,73.77
2017-02-14T03:53:36.843Z,73.58
2017-02-14T03:54:46.976Z,73.77
2017-02-14T03:55:56.719Z,73.58
2017-02-14T03:57:06.445Z,73.58
2017-02-14T03:58:15.484Z,73.86
2017-02-14T03:59:25.614Z,73.68
2017-02-14T04:00:34.528Z,73.64
2017-02-14T04:01:44.253Z,73.74
2017-02-14T04:02:54.427Z,73.93
2017-02-14T04:04:04.490Z,73.93
2017-02-14T04:05:13.805Z,73.93
2017-02-14T04:06:23.115Z,74.02
2017-02-14T04:07:33.253Z,73.86
2017-02-14T04:08:42.997Z,73.77
2017-02-14T04:09:53.405Z,73.93
2017-02-14T04:11:03.526Z,74.02
2017-02-14T04:12:12.855Z,73.93
2017-02-14T04:13:23.013Z,74.34
2017-02-14T04:14:32.363Z,74.21
2017-02-14T04:15:42.090Z,74.34
2017-02-14T04:16:52.249Z,74.11
2017-02-14T04:18:01.560Z,74.11
2017-02-14T04:19:10.482Z,74.49
2017-02-14T04:20:20.221Z,74.4
2017-02-14T04:21:30.570Z,74.3
2017-02-14T04:22:39.902Z,74.21
2017-02-14T04:23:49.212Z,74.02
2017-02-14T04:24:58.531Z,74.4
2017-02-14T04:26:08.251Z,74.21
2017-02-14T04:27:17.814Z,74.21
2017-02-14T04:28:27.135Z,74.11
2017-02-14T04:29:36.449Z,73.83
2017-02-14T04:30:45.779Z,74.3
2017-02-14T04:31:55.127Z,74.02
2017-02-14T04:33:04.193Z,74.49
2017-02-14T04:34:13.510Z,74.68
2017-02-14T04:35:23.679Z,74.68
2017-02-14T04:36:33.400Z,74.58
2017-02-14T04:37:43.158Z,74.49
2017-02-14T04:38:53.035Z,74.77
2017-02-14T04:40:02.364Z,74.68
2017-02-14T04:41:12.499Z,74.68
2017-02-14T04:42:21.413Z,74.77
2017-02-14T04:43:30.735Z,74.68
2017-02-14T04:44:41.025Z,74.77
2017-02-14T04:45:50.333Z,74.87
2017-02-14T04:46:59.643Z,74.87
2017-02-14T04:48:09.382Z,74.96
2017-02-14T04:49:18.696Z,74.96
2017-02-14T04:50:28.274Z,74.96
2017-02-14T04:51:38.003Z,75.05
2017-02-14T04:52:47.322Z,74.96
2017-02-14T04:53:57.481Z,74.96
2017-02-14T04:55:06.812Z,75.43
2017-02-14T04:56:17.092Z,75.34
2017-02-14T04:57:26.403Z,75.43
2017-02-14T04:58:36.538Z,75.15
2017-02-14T04:59:45.882Z,75.34
2017-02-14T05:00:55.216Z,75.43
2017-02-14T05:02:05.543Z,75.43
2017-02-14T05:03:14.867Z,75.24
2017-02-14T05:04:23.765Z,74.87
2017-02-14T05:05:32.688Z,74.77
2017-02-14T05:06:42.028Z,74.96
2017-02-14T05:07:51.921Z,74.87
2017-02-14T05:09:01.228Z,74.87
2017-02-14T05:10:10.553Z,74.87
2017-02-14T05:11:20.286Z,74.87
2017-02-14T05:12:30.474Z,75.05
2017-02-14T05:13:39.964Z,75.05
2017-02-14T05:14:49.709Z,74.87
2017-02-14T05:15:59.030Z,74.68
2017-02-14T05:17:08.382Z,74.96
2017-02-14T05:18:18.116Z,74.77
2017-02-14T05:19:28.763Z,75.15
2017-02-14T05:20:38.074Z,74.87
2017-02-14T05:21:47.808Z,74.96
2017-02-14T05:22:57.548Z,74.87
2017-02-14T05:24:06.885Z,74.87
2017-02-14T05:25:15.788Z,74.77
2017-02-14T05:26:25.117Z,74.96
2017-02-14T05:27:34.840Z,75.05
2017-02-14T05:28:43.754Z,74.96
2017-02-14T05:29:52.663Z,75.24
2017-02-14T05:31:02.090Z,75.05
2017-02-14T05:32:10.993Z,75.15
2017-02-14T05:33:20.324Z,75.15
2017-02-14T05:34:29.655Z,75.34
2017-02-14T05:35:38.567Z,75.34
2017-02-14T05:36:48.142Z,75.24
2017-02-14T05:37:58.272Z,75.24
2017-02-14T05:39:08.415Z,75.05
2017-02-14T05:40:17.725Z,75.34
2017-02-14T05:41:27.466Z,75.15
2017-02-14T05:42:37.544Z,75.15
2017-02-14T05:43:46.853Z,74.96
2017-02-14T05:44:56.982Z,75.53
2017-02-14T05:46:05.900Z,75.43
2017-02-14T05:47:15.224Z,75.62
2017-02-14T05:48:24.732Z,75.53
2017-02-14T05:49:34.858Z,75.15
2017-02-14T05:50:44.181Z,75.34
2017-02-14T05:51:54.324Z,75.24
2017-02-14T05:53:03.230Z,75.24
2017-02-14T05:54:12.261Z,75.24
2017-02-14T05:55:21.986Z,75.15
2017-02-14T05:56:31.716Z,75.15
2017-02-14T05:57:40.644Z,75.24
2017-02-14T05:58:49.556Z,75.15
2017-02-14T05:59:59.402Z,74.96
2017-02-14T06:01:09.546Z,74.96
2017-02-14T06:02:19.761Z,74.96
2017-02-14T06:03:29.085Z,75.15
2017-02-14T06:04:38.798Z,75.15
2017-02-14T06:05:48.166Z,75.15
2017-02-14T06:06:57.916Z,75.15
2017-02-14T06:08:08.114Z,75.24
2017-02-14T06:09:18.238Z,75.24
2017-02-14T06:10:27.564Z,74.96
2017-02-14T06:11:37.485Z,75.05
2017-02-14T06:12:47.389Z,75.15
2017-02-14T06:13:57.523Z,75.15
2017-02-14T06:15:06.856Z,75.24
2017-02-14T06:16:16.186Z,75.34
2017-02-14T06:17:25.247Z,75.24
2017-02-14T06:18:34.172Z,75.15
2017-02-14T06:19:43.907Z,75.05
2017-02-14T06:20:53.217Z,75.43
2017-02-14T06:22:02.961Z,75.24
2017-02-14T06:23:11.924Z,75.24
2017-02-14T06:24:20.829Z,75.34
2017-02-14T06:25:30.978Z,75.24
2017-02-14T06:26:40.300Z,75.24
2017-02-14T06:27:50.042Z,75.15
2017-02-14T06:28:59.771Z,75.24
2017-02-14T06:30:09.507Z,75.15
2017-02-14T06:31:19.658Z,75.24
2017-02-14T06:32:28.600Z,75.24
2017-02-14T06:33:37.941Z,75.34
2017-02-14T06:34:47.430Z,75.24
2017-02-14T06:35:57.577Z,75.34
2017-02-14T06:37:06.498Z,75.24
2017-02-14T06:38:15.419Z,75.15
2017-02-14T06:39:24.360Z,75.24
2017-02-14T06:40:33.374Z,75.15
2017-02-14T06:41:43.150Z,75.24
2017-02-14T06:42:52.060Z,75.34
2017-02-14T06:44:01.386Z,75.15
2017-02-14T06:45:10.766Z,75.34
2017-02-14T06:46:20.374Z,75.15
2017-02-14T06:47:29.735Z,75.34
2017-02-14T06:48:39.051Z,75.24
2017-02-14T06:49:47.974Z,74.96
2017-02-14T06:50:56.890Z,74.96
2017-02-14T06:52:06.338Z,75.24
2017-02-14T06:53:16.068Z,75.05
2017-02-14T06:54:25.789Z,75.15
2017-02-14T06:55:35.523Z,75.15
2017-02-14T06:56:44.846Z,75.43
2017-02-14T06:57:54.318Z,75.62
2017-02-14T06:59:04.067Z,75.62
2017-02-14T07:00:14.258Z,75.81
2017-02-14T07:01:23.991Z,75.71
2017-02-14T07:02:33.319Z,75.81
2017-02-14T07:03:43.198Z,75.62
2017-02-14T07:04:52.223Z,75.43
2017-02-14T07:06:01.939Z,75.34
2017-02-14T07:07:11.768Z,75.43
2017-02-14T07:08:21.493Z,75.43
2017-02-14T07:09:30.917Z,75.62
2017-02-14T07:10:40.298Z,75.62
2017-02-14T07:11:50.448Z,75.53
2017-02-14T07:12:59.354Z,75.53
2017-02-14T07:14:09.127Z,75.71
2017-02-14T07:15:18.597Z,75.71
2017-02-14T07:16:28.369Z,75.71
2017-02-14T07:17:38.099Z,75.71
2017-02-14T07:18:47.845Z,75.53
2017-02-14T07:19:56.766Z,75.62
2017-02-14T07:21:06.647Z,75.62
2017-02-14T07:22:16.375Z,75.43
2017-02-14T07:23:26.109Z,75.43
2017-02-14T07:24:35.016Z,75.71
2017-02-14T07:25:44.751Z,75.53
2017-02-14T07:26:54.109Z,75.81
2017-02-14T07:28:03.454Z,75.53
2017-02-14T07:29:13.176Z,75.24
2017-02-14T07:30:22.113Z,75.53
2017-02-14T07:31:31.847Z,75.43
2017-02-14T07:32:41.685Z,75.53
2017-02-14T07:33:51.436Z,75.15
2017-02-14T07:35:01.172Z,75.05
2017-02-14T07:36:10.092Z,74.96
2017-02-14T07:37:19.830Z,75.24
2017-02-14T07:38:28.899Z,75.15
2017-02-14T07:39:37.817Z,75.05
2017-02-14T07:40:47.142Z,75.05
2017-02-14T07:41:57.265Z,75.15
2017-02-14T07:43:06.989Z,75.34
2017-02-14T07:44:16.610Z,75.34
2017-02-14T07:45:26.349Z,75.15
2017-02-14T07:46:35.293Z,75.43
2017-02-14T07:47:44.199Z,75.34
2017-02-14T07:48:53.947Z,74.96
2017-02-14T07:50:03.010Z,75.15
2017-02-14T07:51:12.329Z,74.87
2017-02-14T07:52:22.868Z,75.24
2017-02-14T07:53:33.017Z,74.87
2017-02-14T07:54:43.151Z,74.96
2017-02-14T07:55:53.389Z,74.4
2017-02-14T07:57:03.535Z,74.58
2017-02-14T07:58:12.881Z,74.87
2017-02-14T07:59:21.826Z,74.87
2017-02-14T08:00:31.140Z,74.58
2017-02-14T08:01:41.071Z,74.68
2017-02-14T08:02:50.413Z,74.58
2017-02-14T08:04:00.569Z,74.58
2017-02-14T08:05:10.313Z,74.49
2017-02-14T08:06:20.035Z,74.49
2017-02-14T08:07:29.628Z,74.58
2017-02-14T08:08:38.956Z,74.3
2017-02-14T08:09:48.682Z,74.3
2017-02-14T08:10:58.015Z,74.4
2017-02-14T08:12:08.170Z,74.49
2017-02-14T08:13:17.606Z,74.58
2017-02-14T08:14:27.353Z,74.68
2017-02-14T08:15:37.085Z,74.77
2017-02-14T08:16:46.816Z,74.68
2017-02-14T08:17:56.127Z,74.3
2017-02-14T08:19:06.313Z,74.21
2017-02-14T08:20:16.061Z,74.02
2017-02-14T08:21:24.991Z,74.4
2017-02-14T08:22:33.897Z,74.21
2017-02-14T08:23:43.641Z,74.21
2017-02-14T08:24:52.822Z,73.93
2017-02-14T08:26:02.150Z,73.74
2017-02-14T08:27:11.461Z,74.02
2017-02-14T08:28:21.634Z,73.64
2017-02-14T08:29:31.786Z,74.05
2017-02-14T08:30:41.196Z,73.55
2017-02-14T08:31:50.538Z,73.64
2017-02-14T08:32:59.444Z,73.86
2017-02-14T08:34:08.781Z,73.49
2017-02-14T08:35:17.690Z,73.11
2017-02-14T08:36:27.497Z,73.49
2017-02-14T08:37:37.637Z,73.49
2017-02-14T08:38:46.954Z,73.39
2017-02-14T08:39:56.280Z,72.92
2017-02-14T08:41:05.632Z,72.83
2017-02-14T08:42:14.593Z,73.02
2017-02-14T08:43:23.911Z,73.3
2017-02-14T08:44:33.235Z,73.21
2017-02-14T08:45:42.972Z,73.49
2017-02-14T08:46:52.297Z,72.92
2017-02-14T08:48:01.458Z,72.73
2017-02-14T08:49:11.601Z,72.83
2017-02-14T08:50:20.912Z,72.83
2017-02-14T08:51:29.865Z,72.55
2017-02-14T08:52:39.611Z,72.64
2017-02-14T08:53:49.082Z,72.83
2017-02-14T08:54:57.995Z,72.64
2017-02-14T08:56:07.310Z,73.21
2017-02-14T08:57:17.070Z,72.26
2017-02-14T08:58:25.994Z,72.55
2017-02-14T08:59:34.958Z,72.64
2017-02-14T09:00:44.280Z,72.64
2017-02-14T09:01:53.616Z,72.26
2017-02-14T09:03:03.772Z,72.36
2017-02-14T09:04:12.689Z,72.17
2017-02-14T09:05:22.580Z,72.36
2017-02-14T09:06:31.895Z,72.17
2017-02-14T09:07:41.235Z,72.11
2017-02-14T09:08:50.953Z,71.45
2017-02-14T09:10:00.270Z,71.64
2017-02-14T09:11:10.173Z,72.11
2017-02-14T09:12:19.529Z,71.83
2017-02-14T09:13:29.267Z,71.54
2017-02-14T09:14:38.204Z,71.54
2017-02-14T09:15:47.933Z,71.64
2017-02-14T09:16:57.939Z,71.73
2017-02-14T09:18:07.275Z,71.26
2017-02-14T09:19:16.184Z,71.26
2017-02-14T09:20:25.503Z,70.88
2017-02-14T09:21:35.232Z,70.88
2017-02-14T09:22:45.017Z,71.26
2017-02-14T09:23:53.939Z,71.35
2017-02-14T09:25:03.285Z,70.21
2017-02-14T09:26:12.621Z,70.59
2017-02-14T09:27:21.540Z,70.5
2017-02-14T09:28:32.086Z,70.5
2017-02-14T09:29:41.050Z,70.12
2017-02-14T09:30:50.796Z,70.5
2017-02-14T09:32:00.952Z,70.12
2017-02-14T09:33:10.278Z,70.4
2017-02-14T09:34:19.661Z,70.16
2017-02-14T09:35:28.613Z,69.87
2017-02-14T09:36:37.955Z,69.78
2017-02-14T09:37:47.290Z,69.59
2017-02-14T09:38:56.215Z,69.4
2017-02-14T09:40:06.632Z,69.21
2017-02-14T09:41:15.546Z,69.31
2017-02-14T09:42:24.863Z,69.4
2017-02-14T09:43:34.196Z,68.93
2017-02-14T09:44:43.931Z,68.84
2017-02-14T09:45:53.155Z,68.93
2017-02-14T09:47:03.321Z,68.17
2017-02-14T09:48:13.468Z,68.46
2017-02-14T09:49:24.024Z,68.65
2017-02-14T09:50:33.753Z,68.36
2017-02-14T09:51:43.917Z,68.08
2017-02-14T09:52:54.092Z,68.27
2017-02-14T09:54:03.418Z,68.17
2017-02-14T09:55:13.574Z,67.89
2017-02-14T09:56:22.895Z,67.89
2017-02-14T09:57:32.784Z,67.7
2017-02-14T09:58:42.531Z,67.93
2017-02-14T09:59:51.850Z,68.21
2017-02-14T10:01:01.602Z,67.83
2017-02-14T10:02:12.194Z,66.98
2017-02-14T10:03:21.973Z,67.45
2017-02-14T10:04:32.144Z,67.17
2017-02-14T10:05:42.702Z,66.69
2017-02-14T10:06:52.845Z,66.69
2017-02-14T10:08:01.760Z,66.88
2017-02-14T10:09:11.898Z,66.98
2017-02-14T10:10:21.220Z,66.79
2017-02-14T10:11:30.950Z,66.5
2017-02-14T10:12:41.121Z,66.03
2017-02-14T10:13:50.447Z,65.66
2017-02-14T10:14:59.841Z,65.75
2017-02-14T10:16:10.002Z,65.84
2017-02-14T10:17:19.755Z,65.18
2017-02-14T10:18:29.078Z,65.09
2017-02-14T10:19:37.999Z,65.47
2017-02-14T10:20:47.476Z,65.21
2017-02-14T10:21:56.395Z,64.99
2017-02-14T10:23:06.152Z,64.64
2017-02-14T10:24:15.066Z,64.55
2017-02-14T10:25:23.996Z,64.74
2017-02-14T10:26:33.058Z,63.98
2017-02-14T10:27:41.970Z,64.17
2017-02-14T10:28:52.126Z,64.07
2017-02-14T10:30:01.080Z,63.7
2017-02-14T10:31:11.235Z,63.6
2017-02-14T10:32:20.610Z,63.32
2017-02-14T10:33:30.341Z,62.75
2017-02-14T10:34:40.118Z,63.04
2017-02-14T10:35:49.441Z,62.94
2017-02-14T10:36:58.765Z,62.94
2017-02-14T10:38:09.171Z,62.37
2017-02-14T10:39:18.917Z,62.37
2017-02-14T10:40:28.249Z,61.71
2017-02-14T10:41:37.580Z,61.9
2017-02-14T10:42:47.349Z,61.93
2017-02-14T10:43:57.189Z,61.99
2017-02-14T10:45:07.326Z,61.65
2017-02-14T10:46:16.248Z,61.46
2017-02-14T10:47:25.980Z,61.36
2017-02-14T10:48:35.728Z,61.55
2017-02-14T10:49:45.152Z,61.08
2017-02-14T10:50:54.091Z,60.99
2017-02-14T10:52:04.260Z,60.99
2017-02-14T10:53:13.186Z,61.18
2017-02-14T10:54:22.924Z,60.61
2017-02-14T10:55:32.859Z,60.32
2017-02-14T10:56:42.590Z,59.94
2017-02-14T10:57:51.915Z,59.66
2017-02-14T10:59:01.258Z,59.94
2017-02-14T11:00:10.579Z,60.13
2017-02-14T11:01:20.340Z,60.22
2017-02-14T11:02:30.085Z,59.47
2017-02-14T11:03:39.445Z,59.28
2017-02-14T11:04:48.373Z,59.59
2017-02-14T11:05:57.696Z,59.47
2017-02-14T11:07:07.234Z,58.45
2017-02-14T11:08:16.567Z,58.74
2017-02-14T11:09:25.887Z,58.55
2017-02-14T11:10:35.637Z,58.55
2017-02-14T11:11:45.373Z,58.17
2017-02-14T11:12:55.219Z,58.07
2017-02-14T11:14:04.564Z,57.7
2017-02-14T11:15:13.474Z,58.26
2017-02-14T11:16:22.412Z,57.89
2017-02-14T11:17:31.747Z,57.7
2017-02-14T11:18:41.368Z,57.23
2017-02-14T11:19:51.110Z,57.04
2017-02-14T11:21:00.018Z,56.75
2017-02-14T11:22:09.352Z,56.85
2017-02-14T11:23:19.097Z,56.56
2017-02-14T11:24:28.580Z,56.27
2017-02-14T11:25:38.317Z,56.37
2017-02-14T11:26:47.641Z,56.12
2017-02-14T11:27:56.972Z,55.55
2017-02-14T11:29:06.705Z,55.26
2017-02-14T11:30:16.555Z,55.07
2017-02-14T11:31:26.289Z,54.69
2017-02-14T11:32:36.024Z,54.5
2017-02-14T11:33:45.344Z,53.94
2017-02-14T11:34:55.090Z,54.13
2017-02-14T11:36:04.914Z,54.13
2017-02-14T11:37:13.826Z,54.03
2017-02-14T11:38:23.975Z,53.65
2017-02-14T11:39:32.888Z,53.65
2017-02-14T11:40:41.828Z,52.51
2017-02-14T11:41:51.721Z,52.7
2017-02-14T11:43:01.477Z,52.42
2017-02-14T11:44:11.218Z,51.76
2017-02-14T11:45:20.167Z,51.95
2017-02-14T11:46:29.899Z,51.87
2017-02-14T11:47:39.702Z,51.59
2017-02-14T11:48:49.444Z,51.87
2017-02-14T11:49:58.375Z,51.03
2017-02-14T11:51:07.300Z,50.83
2017-02-14T11:52:16.630Z,51.21
2017-02-14T11:53:25.663Z,51.03
2017-02-14T11:54:35.007Z,50.83
2017-02-14T11:55:43.919Z,50.36
2017-02-14T11:56:52.839Z,50.17
2017-02-14T11:58:02.175Z,49.98
2017-02-14T11:59:11.245Z,49.69
2017-02-14T12:00:21.381Z,49.51
2017-02-14T12:01:30.705Z,49.22
2017-02-14T12:02:40.048Z,49.13
2017-02-14T12:03:49.790Z,49.03
2017-02-14T12:04:59.268Z,48.75
2017-02-14T12:06:08.605Z,48.84
2017-02-14T12:07:18.789Z,48.56
2017-02-14T12:08:28.111Z,48.27
2017-02-14T12:09:37.034Z,48.27
2017-02-14T12:10:46.409Z,48.46
2017-02-14T12:11:55.736Z,48.27
2017-02-14T12:13:05.495Z,47.89
2017-02-14T12:14:15.232Z,47.89
2017-02-14T12:15:24.990Z,47.63
2017-02-14T12:16:34.310Z,47.89
2017-02-14T12:17:44.054Z,48.18
2017-02-14T12:18:53.376Z,48.01
2017-02-14T12:20:03.115Z,48.01
2017-02-14T12:21:13.260Z,48.01
2017-02-14T12:22:22.473Z,47.63
2017-02-14T12:23:31.813Z,47.63
2017-02-14T12:24:41.128Z,47.44
2017-02-14T12:25:51.267Z,47.63
2017-02-14T12:27:00.185Z,47.73
2017-02-14T12:28:09.673Z,47.16
2017-02-14T12:29:18.631Z,47.25
2017-02-14T12:30:29.201Z,47.06
2017-02-14T12:31:38.590Z,46.88
2017-02-14T12:32:47.944Z,46.97
2017-02-14T12:33:58.713Z,47.06
2017-02-14T12:35:08.480Z,46.69
2017-02-14T12:36:18.296Z,46.59
2017-02-14T12:37:27.239Z,46.7
2017-02-14T12:38:36.605Z,46.61
2017-02-14T12:39:46.907Z,46.61
2017-02-14T12:40:55.867Z,46.33
2017-02-14T12:42:05.238Z,46.14
2017-02-14T12:43:14.584Z,45.47
2017-02-14T12:44:24.385Z,45.85
2017-02-14T12:45:34.039Z,46.04
2017-02-14T12:46:43.381Z,45.95
2017-02-14T12:47:52.725Z,45.76
2017-02-14T12:49:02.086Z,45.85
2017-02-14T12:50:11.944Z,46.14
2017-02-14T12:51:21.042Z,45.47
2017-02-14T12:52:30.778Z,45.57
2017-02-14T12:53:39.800Z,45.38
2017-02-14T12:54:49.264Z,45.19
2017-02-14T12:55:59.063Z,45.28
2017-02-14T12:57:09.053Z,44.9
2017-02-14T12:58:18.793Z,45.02
2017-02-14T12:59:29.349Z,44.93
2017-02-14T13:00:38.733Z,44.83
2017-02-14T13:01:48.073Z,44.45
2017-02-14T13:02:57.564Z,44.17
2017-02-14T13:04:07.726Z,43.88
2017-02-14T13:05:17.050Z,44.54
2017-02-14T13:06:25.984Z,44.17
2017-02-14T13:07:35.352Z,43.79
2017-02-14T13:08:45.554Z,43.31
2017-02-14T13:09:54.499Z,42.83
2017-02-14T13:11:04.249Z,42.83
2017-02-14T13:12:13.185Z,42.65
2017-02-14T13:13:22.941Z,42.65
2017-02-14T13:14:31.971Z,42.93
2017-02-14T13:15:41.314Z,42.36
2017-02-14T13:16:50.643Z,42.36
2017-02-14T13:18:00.802Z,42.17
2017-02-14T13:19:10.960Z,41.98
2017-02-14T13:20:20.334Z,42
2017-02-14T13:21:30.120Z,41.43
2017-02-14T13:22:39.451Z,41.81
2017-02-14T13:23:49.203Z,41.62
2017-02-14T13:24:58.556Z,41.62
2017-02-14T13:26:08.833Z,41.62
2017-02-14T13:27:18.511Z,41.14
2017-02-14T13:28:27.888Z,41.24
2017-02-14T13:29:37.210Z,40.67
2017-02-14T13:30:46.541Z,40.58
2017-02-14T13:31:55.970Z,40.67
2017-02-14T13:33:05.329Z,40.67
2017-02-14T13:34:14.308Z,40.67
2017-02-14T13:35:24.555Z,40.58
2017-02-14T13:36:34.296Z,40.58
2017-02-14T13:37:44.181Z,40.2
2017-02-14T13:38:53.110Z,40.39
2017-02-14T13:40:02.881Z,40.58
2017-02-14T13:41:12.215Z,40.01
2017-02-14T13:42:21.959Z,39.84
2017-02-14T13:43:30.975Z,39.74
2017-02-14T13:44:40.732Z,39.74
2017-02-14T13:45:50.463Z,39.74
2017-02-14T13:46:59.812Z,39.26
2017-02-14T13:48:09.195Z,39.36
2017-02-14T13:49:18.636Z,39.45
2017-02-14T13:50:27.972Z,38.79
2017-02-14T13:51:37.316Z,38.7
2017-02-14T13:52:47.480Z,38.79
2017-02-14T13:53:57.623Z,38.79
2017-02-14T13:55:07.470Z,38.51
2017-02-14T13:56:17.271Z,38.7
2017-02-14T13:57:26.608Z,38.51
2017-02-14T13:58:36.347Z,38.6
2017-02-14T13:59:46.492Z,38.6
2017-02-14T14:00:56.348Z,38.51
2017-02-14T14:02:05.673Z,38.51
2017-02-14T14:03:15.001Z,38.51
2017-02-14T14:04:23.943Z,38.51
2017-02-14T14:05:32.865Z,38.34
2017-02-14T14:06:42.307Z,38.43
2017-02-14T14:07:51.653Z,38.34
2017-02-14T14:09:00.573Z,38.05
2017-02-14T14:10:09.893Z,37.67
2017-02-14T14:11:18.824Z,37.76
2017-02-14T14:12:27.902Z,37.67
2017-02-14T14:13:37.648Z,37.29
2017-02-14T14:14:47.427Z,37.1
2017-02-14T14:15:57.592Z,36.81
2017-02-14T14:17:06.945Z,36.81
2017-02-14T14:18:17.255Z,36.53
2017-02-14T14:19:26.208Z,36.43
2017-02-14T14:20:35.580Z,36.53
2017-02-14T14:21:45.722Z,36.62
2017-02-14T14:22:55.467Z,36.53
2017-02-14T14:24:05.042Z,36.24
2017-02-14T14:25:14.811Z,36.15
2017-02-14T14:26:23.723Z,35.88
2017-02-14T14:27:32.652Z,35.96
2017-02-14T14:28:41.991Z,35.86
2017-02-14T14:29:50.966Z,35.96
2017-02-14T14:31:01.164Z,35.96
2017-02-14T14:32:10.917Z,36.15
2017-02-14T14:33:20.254Z,36.07
2017-02-14T14:34:29.586Z,36.16
2017-02-14T14:35:38.552Z,35.97
2017-02-14T14:36:48.294Z,35.6
2017-02-14T14:37:57.242Z,35.69
2017-02-14T14:39:06.598Z,35.69
2017-02-14T14:40:16.349Z,35.31
2017-02-14T14:41:25.737Z,35.6
2017-02-14T14:42:35.094Z,35.6
2017-02-14T14:43:44.449Z,35.6
2017-02-14T14:44:55.023Z,35.69
2017-02-14T14:46:04.761Z,35.31
2017-02-14T14:47:13.983Z,35.71
2017-02-14T14:48:22.924Z,35.23
2017-02-14T14:49:32.286Z,34.85
2017-02-14T14:50:41.657Z,34.83
2017-02-14T14:51:51.008Z,35.02
2017-02-14T14:53:00.453Z,35.12
2017-02-14T14:54:10.200Z,35.31
2017-02-14T14:55:20.390Z,35.21
2017-02-14T14:56:29.337Z,35.02
2017-02-14T14:57:39.897Z,35.5